createdAt,value
2018-11-02T00:02:04.585Z,13.87
2018-11-02T00:04:32.769Z,14.03
2018-11-02T00:07:02.953Z,12.67
2018-11-02T00:09:31.733Z,10.03
2018-11-02T00:12:05.805Z,7.27
2018-11-02T00:14:33.946Z,10.40
2018-11-02T00:17:04.960Z,17.20
2018-11-02T00:19:34.097Z,12.60
2018-11-02T00:22:04.418Z,4.40
2018-11-02T00:24:32.641Z,3.87
2018-11-02T00:27:05.482Z,4.10
2018-11-02T00:29:33.655Z,3.93
2018-11-02T00:32:03.863Z,4.47
2018-11-02T00:34:31.906Z,5.17
2018-11-02T00:37:00.388Z,4.23
2018-11-02T00:39:28.539Z,4.23
2018-11-02T00:41:56.680Z,4.37
2018-11-02T00:44:24.869Z,4.80
2018-11-02T00:46:53.013Z,4.73
2018-11-02T00:49:21.156Z,4.50
2018-11-02T00:51:49.338Z,4.33
2018-11-02T00:54:17.764Z,5.10
2018-11-02T00:56:45.930Z,4.97
2018-11-02T00:59:14.182Z,4.37
2018-11-02T01:01:42.477Z,5.17
2018-11-02T01:04:10.625Z,4.97
2018-11-02T01:06:38.912Z,5.53
2018-11-02T01:09:09.821Z,5.87
2018-11-02T01:11:37.994Z,5.20
2018-11-02T01:14:06.405Z,4.67
2018-11-02T01:16:34.578Z,4.23
2018-11-02T01:19:06.973Z,4.17
2018-11-02T01:21:35.813Z,3.77
2018-11-02T01:24:07.761Z,4.33
2018-11-02T01:26:35.948Z,4.07
2018-11-02T01:29:04.805Z,3.63
2018-11-02T01:31:32.949Z,3.97
2018-11-02T01:34:03.948Z,3.40
2018-11-02T01:36:32.095Z,3.80
2018-11-02T01:39:00.250Z,2.70
2018-11-02T01:41:28.415Z,2.83
2018-11-02T01:43:56.552Z,1.97
2018-11-02T01:46:24.750Z,2.10
2018-11-02T01:48:53.395Z,2.40
2018-11-02T01:51:21.620Z,2.43
2018-11-02T01:53:49.781Z,2.50
2018-11-02T01:56:18.261Z,2.67
2018-11-02T01:58:47.678Z,2.40
2018-11-02T02:01:15.881Z,2.63
2018-11-02T02:03:44.133Z,1.57
2018-11-02T02:06:12.563Z,1.57
2018-11-02T02:08:40.761Z,1.97
2018-11-02T02:11:09.217Z,1.60
2018-11-02T02:13:37.401Z,1.80
2018-11-02T02:16:07.734Z,1.80
2018-11-02T02:18:35.935Z,2.60
2018-11-02T02:21:06.496Z,2.20
2018-11-02T02:23:34.685Z,2.30
2018-11-02T02:26:07.827Z,2.40
2018-11-02T02:28:36.049Z,3.00
2018-11-02T02:31:05.689Z,2.60
2018-11-02T02:33:33.843Z,2.47
2018-11-02T02:36:03.804Z,2.57
2018-11-02T02:38:31.906Z,2.70
2018-11-02T02:41:00.300Z,2.70
2018-11-02T02:43:28.940Z,2.70
2018-11-02T02:45:57.138Z,2.70
2018-11-02T02:48:25.293Z,2.60
2018-11-02T02:50:53.460Z,2.80
2018-11-02T02:53:21.640Z,2.90
2018-11-02T02:55:49.834Z,2.70
2018-11-02T02:58:18.013Z,2.73
2018-11-02T03:00:46.168Z,2.63
2018-11-02T03:03:14.325Z,2.50
2018-11-02T03:05:42.532Z,2.73
2018-11-02T03:08:10.661Z,2.93
2018-11-02T03:10:39.693Z,2.70
2018-11-02T03:13:07.696Z,2.30
2018-11-02T03:15:35.876Z,2.13
2018-11-02T03:18:07.824Z,1.83
2018-11-02T03:20:35.975Z,2.00
2018-11-02T03:23:06.633Z,2.43
2018-11-02T03:25:34.761Z,2.07
2018-11-02T03:28:05.108Z,2.47
2018-11-02T03:30:33.253Z,2.40
2018-11-02T03:33:02.805Z,2.20
2018-11-02T03:35:31.602Z,2.43
2018-11-02T03:37:59.770Z,2.30
2018-11-02T03:40:27.938Z,4.00
2018-11-02T03:42:57.169Z,5.80
2018-11-02T03:45:26.018Z,5.40
2018-11-02T03:47:54.289Z,4.07
2018-11-02T03:50:22.432Z,3.73
2018-11-02T03:52:51.232Z,2.40
2018-11-02T03:55:19.372Z,2.33
2018-11-02T03:57:47.532Z,2.57
2018-11-02T04:00:15.721Z,4.10
2018-11-02T04:02:43.986Z,4.80
2018-11-02T04:05:12.107Z,3.77
2018-11-02T04:07:40.229Z,4.80
2018-11-02T04:10:09.641Z,4.00
2018-11-02T04:12:37.813Z,3.80
2018-11-02T04:15:05.962Z,2.90
2018-11-02T04:17:34.145Z,2.77
2018-11-02T04:20:04.884Z,3.53
2018-11-02T04:22:33.498Z,2.83
2018-11-02T04:25:04.756Z,3.70
2018-11-02T04:27:32.908Z,3.27
2018-11-02T04:30:05.993Z,3.23
2018-11-02T04:32:34.145Z,3.30
2018-11-02T04:35:04.362Z,3.80
2018-11-02T04:37:32.616Z,3.27
2018-11-02T04:40:00.778Z,3.70
2018-11-02T04:42:28.951Z,3.97
2018-11-02T04:44:57.089Z,3.73
2018-11-02T04:47:25.856Z,4.10
2018-11-02T04:49:54.006Z,4.10
2018-11-02T04:52:22.171Z,3.53
2018-11-02T04:54:50.354Z,4.37
2018-11-02T04:57:18.497Z,4.10
2018-11-02T04:59:47.658Z,4.17
2018-11-02T05:02:15.828Z,3.80
2018-11-02T05:04:44.006Z,4.30
2018-11-02T05:07:12.220Z,4.00
2018-11-02T05:09:40.531Z,4.43
2018-11-02T05:12:08.721Z,4.30
2018-11-02T05:14:36.892Z,4.60
2018-11-02T05:17:05.800Z,3.60
2018-11-02T05:19:33.945Z,3.47
2018-11-02T05:22:07.521Z,4.50
2018-11-02T05:24:35.696Z,4.30
2018-11-02T05:27:04.937Z,4.03
2018-11-02T05:29:34.120Z,3.80
2018-11-02T05:32:04.201Z,3.97
2018-11-02T05:34:32.609Z,4.23
2018-11-02T05:37:04.673Z,4.63
2018-11-02T05:39:32.910Z,4.50
2018-11-02T05:42:04.598Z,5.13
2018-11-02T05:44:32.796Z,4.20
2018-11-02T05:47:03.787Z,4.90
2018-11-02T05:49:31.889Z,4.10
2018-11-02T05:52:00.175Z,3.87
2018-11-02T05:54:28.326Z,4.83
2018-11-02T05:56:56.508Z,4.80
2018-11-02T05:59:24.733Z,4.07
2018-11-02T06:01:52.872Z,4.60
2018-11-02T06:04:22.100Z,6.13
2018-11-02T06:06:50.870Z,5.03
2018-11-02T06:09:19.023Z,5.83
2018-11-02T06:11:47.297Z,6.20
2018-11-02T06:14:15.500Z,5.60
2018-11-02T06:16:44.543Z,6.20
2018-11-02T06:19:12.703Z,4.90
2018-11-02T06:21:40.834Z,5.37
2018-11-02T06:24:09.046Z,6.30
2018-11-02T06:26:37.202Z,5.60
2018-11-02T06:29:07.464Z,5.87
2018-11-02T06:31:35.683Z,6.27
2018-11-02T06:34:05.186Z,7.07
2018-11-02T06:36:33.387Z,5.97
2018-11-02T06:39:05.501Z,6.30
2018-11-02T06:41:33.676Z,6.77
2018-11-02T06:44:04.564Z,6.37
2018-11-02T06:46:32.708Z,7.13
2018-11-02T06:49:03.725Z,7.23
2018-11-02T06:51:31.905Z,8.97
2018-11-02T06:54:00.637Z,7.60
2018-11-02T06:56:28.837Z,7.40
2018-11-02T06:58:57.158Z,7.77
2018-11-02T07:01:26.100Z,6.20
2018-11-02T07:03:54.281Z,6.40
2018-11-02T07:06:22.458Z,5.10
2018-11-02T07:08:50.580Z,5.53
2018-11-02T07:11:18.747Z,4.63
2018-11-02T07:13:46.917Z,4.30
2018-11-02T07:16:15.096Z,3.83
2018-11-02T07:18:43.309Z,4.40
2018-11-02T07:21:11.493Z,4.60
2018-11-02T07:23:39.641Z,4.37
2018-11-02T07:26:07.831Z,4.43
2018-11-02T07:28:36.008Z,3.60
2018-11-02T07:31:05.070Z,3.40
2018-11-02T07:33:33.261Z,3.57
2018-11-02T07:36:01.995Z,2.87
2018-11-02T07:38:30.164Z,3.10
2018-11-02T07:40:58.317Z,3.33
2018-11-02T07:43:26.500Z,3.37
2018-11-02T07:45:54.680Z,3.10
2018-11-02T07:48:22.887Z,3.40
2018-11-02T07:50:51.063Z,2.50
2018-11-02T07:53:19.221Z,2.83
2018-11-02T07:55:47.406Z,2.23
2018-11-02T07:58:15.907Z,2.87
2018-11-02T08:00:44.017Z,2.57
2018-11-02T08:03:12.189Z,2.70
2018-11-02T08:05:40.385Z,2.40
2018-11-02T08:08:08.532Z,2.80
2018-11-02T08:10:37.263Z,2.50
2018-11-02T08:13:06.836Z,2.63
2018-11-02T08:15:35.005Z,2.30
2018-11-02T08:18:05.075Z,3.03
2018-11-02T08:20:33.523Z,2.70
2018-11-02T08:23:04.265Z,2.53
2018-11-02T08:25:32.424Z,2.50
2018-11-02T08:28:00.593Z,2.60
2018-11-02T08:30:28.840Z,2.27
2018-11-02T08:32:57.057Z,2.57
2018-11-02T08:35:26.304Z,2.00
2018-11-02T08:37:54.433Z,3.03
2018-11-02T08:40:22.625Z,2.90
2018-11-02T08:42:50.845Z,2.30
2018-11-02T08:45:19.901Z,2.60
2018-11-02T08:47:48.133Z,3.00
2018-11-02T08:50:16.306Z,2.63
2018-11-02T08:52:44.457Z,2.20
2018-11-02T08:55:13.133Z,2.27
2018-11-02T08:57:41.323Z,1.50
2018-11-02T09:00:11.090Z,1.50
2018-11-02T09:02:39.265Z,2.03
2018-11-02T09:05:07.756Z,1.73
2018-11-02T09:07:36.737Z,1.70
2018-11-02T09:10:06.728Z,1.90
2018-11-02T09:12:34.905Z,1.80
2018-11-02T09:15:07.608Z,2.07
2018-11-02T09:17:35.881Z,1.70
2018-11-02T09:20:05.091Z,2.00
2018-11-02T09:22:33.269Z,1.80
2018-11-02T09:25:02.045Z,1.50
2018-11-02T09:27:30.267Z,1.40
2018-11-02T09:29:58.390Z,1.60
2018-11-02T09:32:26.534Z,1.20
2018-11-02T09:34:54.695Z,0.90
2018-11-02T09:37:22.865Z,1.50
2018-11-02T09:39:51.061Z,1.50
2018-11-02T09:42:19.247Z,1.10
2018-11-02T09:44:47.341Z,3.70
2018-11-02T09:47:15.516Z,7.97
2018-11-02T09:49:43.702Z,6.60
2018-11-02T09:52:12.040Z,5.67
2018-11-02T09:54:40.045Z,6.60
2018-11-02T09:57:08.185Z,6.97
2018-11-02T09:59:36.341Z,7.33
2018-11-02T10:02:08.711Z,8.33
2018-11-02T10:04:36.729Z,6.13
2018-11-02T10:07:05.744Z,7.33
2018-11-02T10:09:34.333Z,7.60
2018-11-02T10:12:04.673Z,6.70
2018-11-02T10:14:32.828Z,7.70
2018-11-02T10:17:05.653Z,8.00
2018-11-02T10:19:34.230Z,8.00
2018-11-02T10:22:05.397Z,4.87
2018-11-02T10:24:33.616Z,3.93
2018-11-02T10:27:02.778Z,5.20
2018-11-02T10:29:30.976Z,5.70
2018-11-02T10:31:59.189Z,5.17
2018-11-02T10:34:27.399Z,4.00
2018-11-02T10:36:56.352Z,3.30
2018-11-02T10:39:24.562Z,4.03
2018-11-02T10:41:55.514Z,3.67
2018-11-02T10:44:26.152Z,3.43
2018-11-02T10:46:54.260Z,2.67
2018-11-02T10:49:22.461Z,1.87
2018-11-02T10:51:50.932Z,2.60
2018-11-02T10:54:19.116Z,1.80
2018-11-02T10:56:47.383Z,2.63
2018-11-02T10:59:15.401Z,1.83
2018-11-02T11:01:48.947Z,1.77
2018-11-02T11:04:17.148Z,2.00
2018-11-02T11:06:45.346Z,1.67
2018-11-02T11:09:13.820Z,1.90
2018-11-02T11:11:42.572Z,2.00
2018-11-02T11:14:10.968Z,1.53
2018-11-02T11:16:39.138Z,1.83
2018-11-02T11:19:08.250Z,1.60
2018-11-02T11:21:36.737Z,1.53
2018-11-02T11:24:07.072Z,1.30
2018-11-02T11:26:36.424Z,1.20
2018-11-02T11:29:05.302Z,1.80
2018-11-02T11:31:33.465Z,3.67
2018-11-02T11:34:02.794Z,4.83
2018-11-02T11:36:30.984Z,4.17
2018-11-02T11:38:59.168Z,4.13
2018-11-02T11:41:27.678Z,3.70
2018-11-02T11:43:55.894Z,3.93
2018-11-02T11:46:24.929Z,3.70
2018-11-02T11:48:53.148Z,4.90
2018-11-02T11:51:21.249Z,4.27
2018-11-02T11:53:49.457Z,3.80
2018-11-02T11:56:18.104Z,3.37
2018-11-02T11:58:46.581Z,3.00
2018-11-02T12:01:14.704Z,1.83
2018-11-02T12:03:42.904Z,1.80
2018-11-02T12:06:11.065Z,1.90
2018-11-02T12:08:39.214Z,2.27
2018-11-02T12:11:07.397Z,1.97
2018-11-02T12:13:35.588Z,1.60
2018-11-02T12:16:04.094Z,1.90
2018-11-02T12:18:32.192Z,1.87
2018-11-02T12:21:00.357Z,1.67
2018-11-02T12:23:28.603Z,1.80
2018-11-02T12:25:57.718Z,1.40
2018-11-02T12:28:25.931Z,1.77
2018-11-02T12:30:55.289Z,1.73
2018-11-02T12:33:23.425Z,1.60
2018-11-02T12:35:51.613Z,1.77
2018-11-02T12:38:19.812Z,1.57
2018-11-02T12:40:47.997Z,1.70
2018-11-02T12:43:16.211Z,1.87
2018-11-02T12:45:44.380Z,1.47
2018-11-02T12:48:12.845Z,1.53
2018-11-02T12:50:41.163Z,1.47
2018-11-02T12:53:09.309Z,1.50
2018-11-02T12:55:37.505Z,1.97
2018-11-02T12:58:06.913Z,1.40
2018-11-02T13:00:35.117Z,1.33
2018-11-02T13:03:05.117Z,2.03
2018-11-02T13:05:33.286Z,1.60
2018-11-02T13:08:01.889Z,1.60
2018-11-02T13:10:30.040Z,1.70
2018-11-02T13:12:58.224Z,1.50
2018-11-02T13:15:30.151Z,2.00
2018-11-02T13:17:58.387Z,1.70
2018-11-02T13:20:26.559Z,2.00
2018-11-02T13:22:54.713Z,1.43
2018-11-02T13:25:22.872Z,1.70
2018-11-02T13:27:51.993Z,1.10
2018-11-02T13:30:20.323Z,1.27
2018-11-02T13:32:48.388Z,1.70
2018-11-02T13:35:17.774Z,1.60
2018-11-02T13:37:46.459Z,1.90
2018-11-02T13:40:16.130Z,1.50
2018-11-02T13:42:44.455Z,1.53
2018-11-02T13:45:14.475Z,1.40
2018-11-02T13:47:43.178Z,1.83
2018-11-02T13:50:12.000Z,1.97
2018-11-02T13:52:40.519Z,1.90
2018-11-02T13:55:09.407Z,1.43
2018-11-02T13:57:37.800Z,1.50
2018-11-02T14:00:08.196Z,1.70
2018-11-02T14:02:36.172Z,1.97
2018-11-02T14:05:08.601Z,1.20
2018-11-02T14:07:36.782Z,1.27
2018-11-02T14:10:05.411Z,1.80
2018-11-02T14:12:35.115Z,1.60
2018-11-02T14:15:08.328Z,1.50
2018-11-02T14:17:36.450Z,2.00
2018-11-02T14:20:09.070Z,1.60
2018-11-02T14:22:37.386Z,1.80
2018-11-02T14:25:06.513Z,1.50
2018-11-02T14:27:34.722Z,1.43
2018-11-02T14:30:09.780Z,2.13
2018-11-02T14:32:38.328Z,2.70
2018-11-02T14:35:06.784Z,1.83
2018-11-02T14:37:35.101Z,2.00
2018-11-02T14:40:07.841Z,1.70
2018-11-02T14:42:36.509Z,1.77
2018-11-02T14:45:05.766Z,1.50
2018-11-02T14:47:33.912Z,1.50
2018-11-02T14:50:03.876Z,1.23
2018-11-02T14:52:32.072Z,1.73
2018-11-02T14:55:00.249Z,1.40
2018-11-02T14:57:28.396Z,1.80
2018-11-02T14:59:56.723Z,1.50
2018-11-02T15:02:25.673Z,2.40
2018-11-02T15:04:53.865Z,1.80
2018-11-02T15:07:22.061Z,1.77
2018-11-02T15:09:51.106Z,1.50
2018-11-02T15:12:19.777Z,1.47
2018-11-02T15:14:48.210Z,1.27
2018-11-02T15:17:16.408Z,1.87
2018-11-02T15:19:45.197Z,2.33
2018-11-02T15:22:13.763Z,2.37
2018-11-02T15:24:41.941Z,3.13
2018-11-02T15:27:10.129Z,3.10
2018-11-02T15:29:38.297Z,3.10
2018-11-02T15:32:06.553Z,2.60
2018-11-02T15:34:34.773Z,3.03
2018-11-02T15:37:04.030Z,2.93
2018-11-02T15:39:32.512Z,3.00
2018-11-02T15:42:02.881Z,3.07
2018-11-02T15:44:31.083Z,2.40
2018-11-02T15:46:59.300Z,3.30
2018-11-02T15:49:27.469Z,5.23
2018-11-02T15:51:56.502Z,3.97
2018-11-02T15:54:24.648Z,4.50
2018-11-02T15:56:52.808Z,3.50
2018-11-02T15:59:20.976Z,3.77
2018-11-02T16:01:49.133Z,4.07
2018-11-02T16:04:17.326Z,4.60
2018-11-02T16:06:45.868Z,5.47
2018-11-02T16:09:15.948Z,5.00
2018-11-02T16:11:45.097Z,3.83
2018-11-02T16:14:13.622Z,3.80
2018-11-02T16:16:41.993Z,4.07
2018-11-02T16:19:10.153Z,3.93
2018-11-02T16:21:39.080Z,4.40
2018-11-02T16:24:08.295Z,5.97
2018-11-02T16:26:37.297Z,5.53
2018-11-02T16:29:05.553Z,4.83
2018-11-02T16:31:33.754Z,4.47
2018-11-02T16:34:07.214Z,5.00
2018-11-02T16:36:35.376Z,5.60
2018-11-02T16:39:11.169Z,5.40
2018-11-02T16:41:40.025Z,5.40
2018-11-02T16:44:08.860Z,4.70
2018-11-02T16:46:36.894Z,4.90
2018-11-02T16:49:05.149Z,5.50
2018-11-02T16:51:33.357Z,4.50
2018-11-02T16:54:03.737Z,4.50
2018-11-02T16:56:32.864Z,5.10
2018-11-02T16:59:04.732Z,4.80
2018-11-02T17:01:32.901Z,4.90
2018-11-02T17:04:04.718Z,5.00
2018-11-02T17:06:32.892Z,4.73
2018-11-02T17:09:05.573Z,4.27
2018-11-02T17:11:33.809Z,4.57
2018-11-02T17:14:06.417Z,5.20
2018-11-02T17:16:34.591Z,5.97
2018-11-02T17:19:03.282Z,5.33
2018-11-02T17:21:31.709Z,5.23
2018-11-02T17:23:59.897Z,5.80
2018-11-02T17:26:28.129Z,5.87
2018-11-02T17:28:56.296Z,5.60
2018-11-02T17:31:24.458Z,6.70
2018-11-02T17:33:52.626Z,6.00
2018-11-02T17:36:20.785Z,6.20
2018-11-02T17:38:49.004Z,7.30
2018-11-02T17:41:17.188Z,6.83
2018-11-02T17:43:45.364Z,6.67
2018-11-02T17:46:13.495Z,6.93
2018-11-02T17:48:41.732Z,6.27
2018-11-02T17:51:09.950Z,7.00
2018-11-02T17:53:38.081Z,7.77
2018-11-02T17:56:06.601Z,7.93
2018-11-02T17:58:34.778Z,8.20
2018-11-02T18:01:04.927Z,8.50
2018-11-02T18:03:33.117Z,8.20
2018-11-02T18:06:02.946Z,9.50
2018-11-02T18:08:31.147Z,8.77
2018-11-02T18:10:59.240Z,8.23
2018-11-02T18:13:27.462Z,9.33
2018-11-02T18:15:55.614Z,9.23
2018-11-02T18:18:23.737Z,8.73
2018-11-02T18:20:51.937Z,8.50
2018-11-02T18:23:20.121Z,8.03
2018-11-02T18:25:48.284Z,9.57
2018-11-02T18:28:16.492Z,9.10
2018-11-02T18:30:44.718Z,8.60
2018-11-02T18:33:12.840Z,8.87
2018-11-02T18:35:41.191Z,8.97
2018-11-02T18:38:09.341Z,7.77
2018-11-02T18:40:37.481Z,7.90
2018-11-02T18:43:07.393Z,8.73
2018-11-02T18:45:35.554Z,8.23
2018-11-02T18:48:05.861Z,8.27
2018-11-02T18:50:33.941Z,9.63
2018-11-02T18:53:03.041Z,7.80
2018-11-02T18:55:31.756Z,7.50
2018-11-02T18:57:59.981Z,6.70
2018-11-02T19:00:28.076Z,6.23
2018-11-02T19:02:56.226Z,5.60
2018-11-02T19:05:24.433Z,6.13
2018-11-02T19:07:53.509Z,5.93
2018-11-02T19:10:21.686Z,5.93
2018-11-02T19:12:50.109Z,6.00
2018-11-02T19:15:19.253Z,5.20
2018-11-02T19:17:47.476Z,5.23
2018-11-02T19:20:16.090Z,5.13
2018-11-02T19:22:44.398Z,5.70
2018-11-02T19:25:13.704Z,5.30
2018-11-02T19:27:42.481Z,5.47
2018-11-02T19:30:11.993Z,5.33
2018-11-02T19:32:40.209Z,4.93
2018-11-02T19:35:08.863Z,5.50
2018-11-02T19:37:36.880Z,5.40
2018-11-02T19:40:06.914Z,4.90
2018-11-02T19:42:35.110Z,4.30
2018-11-02T19:45:07.461Z,5.07
2018-11-02T19:47:41.149Z,5.23
2018-11-02T19:50:11.217Z,4.97
2018-11-02T19:52:39.396Z,4.10
2018-11-02T19:55:08.803Z,4.77
2018-11-02T19:57:37.046Z,5.03
2018-11-02T20:00:06.965Z,4.67
2018-11-02T20:02:35.106Z,5.40
2018-11-02T20:05:09.360Z,5.00
2018-11-02T20:07:37.969Z,5.20
2018-11-02T20:10:08.271Z,5.70
2018-11-02T20:12:36.832Z,5.40
2018-11-02T20:15:06.232Z,5.50
2018-11-02T20:17:34.556Z,5.97
2018-11-02T20:20:04.697Z,5.90
2018-11-02T20:22:33.197Z,6.63
2018-11-02T20:25:04.749Z,6.83
2018-11-02T20:27:33.224Z,7.10
2018-11-02T20:30:02.121Z,6.07
2018-11-02T20:32:30.516Z,7.63
2018-11-02T20:34:58.636Z,7.77
2018-11-02T20:37:26.752Z,7.27
2018-11-02T20:39:54.957Z,6.37
2018-11-02T20:42:23.913Z,7.50
2018-11-02T20:44:52.101Z,7.10
2018-11-02T20:47:20.285Z,7.30
2018-11-02T20:49:48.502Z,7.60
2018-11-02T20:52:16.636Z,6.70
2018-11-02T20:54:44.778Z,7.97
2018-11-02T20:57:12.909Z,7.73
2018-11-02T20:59:41.119Z,7.10
2018-11-02T21:02:09.317Z,7.17
2018-11-02T21:04:37.497Z,7.00
2018-11-02T21:07:05.777Z,7.03
2018-11-02T21:09:34.490Z,6.20
2018-11-02T21:12:06.194Z,6.10
2018-11-02T21:14:34.628Z,6.20
2018-11-02T21:17:03.549Z,6.53
2018-11-02T21:19:31.664Z,6.97
2018-11-02T21:21:59.879Z,6.03
2018-11-02T21:24:28.265Z,5.77
2018-11-02T21:26:56.470Z,4.87
2018-11-02T21:29:24.644Z,5.87
2018-11-02T21:31:53.780Z,5.43
2018-11-02T21:34:21.913Z,4.57
2018-11-02T21:36:50.109Z,6.10
2018-11-02T21:39:18.266Z,6.17
2018-11-02T21:41:46.437Z,4.80
2018-11-02T21:44:14.589Z,4.50
2018-11-02T21:46:43.751Z,4.00
2018-11-02T21:49:11.892Z,3.57
2018-11-02T21:51:40.233Z,3.90
2018-11-02T21:54:09.370Z,3.50
2018-11-02T21:56:37.639Z,3.47
2018-11-02T21:59:09.600Z,3.37
2018-11-02T22:01:37.713Z,3.37
2018-11-02T22:04:08.676Z,3.60
2018-11-02T22:06:36.901Z,4.30
2018-11-02T22:09:08.241Z,3.30
2018-11-02T22:11:36.390Z,3.37
2018-11-02T22:14:05.199Z,3.80
2018-11-02T22:16:33.347Z,3.73
2018-11-02T22:19:05.877Z,3.43
2018-11-02T22:21:33.988Z,3.40
2018-11-02T22:24:03.743Z,3.50
2018-11-02T22:26:31.900Z,3.47
2018-11-02T22:29:00.106Z,3.33
2018-11-02T22:31:28.234Z,4.60
2018-11-02T22:33:56.405Z,3.13
2018-11-02T22:36:24.583Z,2.87
2018-11-02T22:38:54.604Z,3.70
2018-11-02T22:41:22.756Z,3.33
2018-11-02T22:43:50.920Z,3.10
2018-11-02T22:46:19.374Z,3.40
2018-11-02T22:48:47.518Z,4.60
2018-11-02T22:51:16.017Z,3.83
2018-11-02T22:53:44.190Z,3.20
2018-11-02T22:56:12.629Z,3.63
2018-11-02T22:58:44.697Z,3.40
2018-11-02T23:01:18.393Z,4.03
2018-11-02T23:03:46.572Z,3.83
2018-11-02T23:06:14.724Z,3.47
2018-11-02T23:08:45.396Z,3.60
2018-11-02T23:11:13.475Z,3.50
2018-11-02T23:13:41.710Z,2.97
2018-11-02T23:16:09.891Z,3.23
2018-11-02T23:18:38.587Z,3.53
2018-11-02T23:21:07.583Z,4.77
2018-11-02T23:23:35.760Z,4.77
2018-11-02T23:26:06.889Z,3.70
2018-11-02T23:28:35.030Z,3.40
2018-11-02T23:31:04.097Z,3.63
2018-11-02T23:33:32.301Z,4.53
2018-11-02T23:36:00.416Z,5.00
2018-11-02T23:38:28.588Z,4.73
2018-11-02T23:40:56.717Z,4.20
2018-11-02T23:43:24.941Z,3.80
2018-11-02T23:45:53.928Z,3.83
2018-11-02T23:48:22.116Z,4.60
2018-11-02T23:50:51.104Z,3.60
2018-11-02T23:53:19.513Z,3.77
2018-11-02T23:55:47.742Z,3.53
2018-11-02T23:58:16.824Z,3.80
